SPJL/JUL METAR and TAF weather

Enter ICAO airport designator
Station Type Date Time Source
SPJL METAR 2019/10/23 01:00 UTC NOAA

SPJL 230100Z 24006KT CAVOK 11/M03 Q1033 RMK PP000


Station Type Date Time Source
SPJL Decoded METAR 2019/10/23 01:00 UTC NOAA

Juliaca, Peru (SPJL) 15-29S 070-09W 3827M
Oct 22, 2019 - 09:00 PM EDT / 2019.10.23 0100 UTC
Wind: from the WSW (240 degrees) at 7 MPH (6 KT):0
Visibility: greater than 7 mile(s):0
Temperature: 51 F (11 C)
Dew Point: 26 F (-3 C)
Relative Humidity: 37%
Pressure (altimeter): 30.50 in. Hg (1033 hPa)
ob: SPJL 230100Z 24006KT CAVOK 11/M03 Q1033 RMK PP000
cycle: 1

Station Type Date Time Source
SPJL TAF 2019/10/22 18:33 UTC NOAA

TAF SPJL 221700Z 2218/2318 12008KT CAVOK TX19/2219Z TN03/2310Z
FM230500 VRB05KT CAVOK

Example: see airport list